createdAt,value
2023-03-17T00:00:14.660Z,0.00
2023-03-17T00:01:14.660Z,0.00
2023-03-17T00:02:14.691Z,0.00
2023-03-17T00:03:14.662Z,0.00
2023-03-17T00:04:14.621Z,0.00
2023-03-17T00:05:14.616Z,0.00
2023-03-17T00:06:14.625Z,0.00
2023-03-17T00:07:14.625Z,0.00
2023-03-17T00:08:14.588Z,0.00
2023-03-17T00:09:14.576Z,0.00
2023-03-17T00:10:14.551Z,0.00
2023-03-17T00:11:14.546Z,0.00
2023-03-17T00:12:14.556Z,0.00
2023-03-17T00:13:14.522Z,0.00
2023-03-17T00:14:14.555Z,0.00
2023-03-17T00:15:14.507Z,0.00
2023-03-17T00:16:14.533Z,0.00
2023-03-17T00:17:14.522Z,0.00
2023-03-17T00:18:14.480Z,0.00
2023-03-17T00:19:14.468Z,0.00
2023-03-17T00:20:14.456Z,0.00
2023-03-17T00:21:14.445Z,0.00
2023-03-17T00:22:14.454Z,0.00
2023-03-17T00:23:14.423Z,0.00
2023-03-17T00:24:15.147Z,0.00
2023-03-17T00:25:14.425Z,0.00
2023-03-17T00:26:14.404Z,0.00
2023-03-17T00:27:14.463Z,0.00
2023-03-17T00:28:14.383Z,0.00
2023-03-17T00:29:14.383Z,0.00
2023-03-17T00:30:14.369Z,0.00
2023-03-17T00:31:14.455Z,0.00
2023-03-17T00:32:14.379Z,0.00
2023-03-17T00:33:14.343Z,0.00
2023-03-17T00:34:14.324Z,0.00
2023-03-17T00:35:14.305Z,0.00
2023-03-17T00:36:14.295Z,0.00
2023-03-17T00:37:14.300Z,0.00
2023-03-17T00:38:14.298Z,0.00
2023-03-17T00:39:48.658Z,0.00
2023-03-17T00:40:49.653Z,0.00
2023-03-17T00:41:51.378Z,0.00
2023-03-17T00:42:49.648Z,0.00
2023-03-17T00:43:49.624Z,0.00
2023-03-17T00:44:49.615Z,0.00
2023-03-17T00:45:49.614Z,0.00
2023-03-17T00:46:49.703Z,0.00
2023-03-17T00:47:49.601Z,0.00
2023-03-17T00:48:49.565Z,0.00
2023-03-17T00:49:49.558Z,0.00
2023-03-17T00:50:49.546Z,0.00
2023-03-17T00:51:49.544Z,0.00
2023-03-17T00:52:49.541Z,0.00
2023-03-17T00:53:49.532Z,0.00
2023-03-17T00:54:49.511Z,0.00
2023-03-17T00:55:49.512Z,0.00
2023-03-17T00:56:49.504Z,0.00
2023-03-17T00:57:49.505Z,0.00
2023-03-17T00:58:49.477Z,0.00
2023-03-17T00:59:49.460Z,0.00
2023-03-17T01:00:49.486Z,0.00
2023-03-17T01:01:49.513Z,0.00
2023-03-17T01:02:49.455Z,0.00
2023-03-17T01:03:49.426Z,0.00
2023-03-17T01:04:59.526Z,0.00
2023-03-17T01:05:49.411Z,0.00
2023-03-17T01:06:49.396Z,0.00
2023-03-17T01:07:49.438Z,0.00
2023-03-17T01:08:49.363Z,0.00
2023-03-17T01:09:49.361Z,0.00
2023-03-17T01:10:49.342Z,0.00
2023-03-17T01:11:49.349Z,0.00
2023-03-17T01:12:49.350Z,0.00
2023-03-17T01:13:49.320Z,0.00
2023-03-17T01:14:49.305Z,0.00
2023-03-17T01:15:49.302Z,0.00
2023-03-17T01:16:49.302Z,0.00
2023-03-17T01:17:49.291Z,0.00
2023-03-17T01:18:49.331Z,0.00
2023-03-17T01:19:49.262Z,0.00
2023-03-17T01:20:49.247Z,0.00
2023-03-17T01:21:49.246Z,0.00
2023-03-17T01:22:49.249Z,0.00
2023-03-17T01:23:49.235Z,0.00
2023-03-17T01:24:49.214Z,0.00
2023-03-17T01:25:49.216Z,0.00
2023-03-17T01:26:49.192Z,0.00
2023-03-17T01:27:49.197Z,0.00
2023-03-17T01:28:49.170Z,0.00
2023-03-17T01:29:49.165Z,0.00
2023-03-17T01:30:49.174Z,0.00
2023-03-17T01:31:49.223Z,0.00
2023-03-17T01:32:49.158Z,0.00
2023-03-17T01:33:49.121Z,0.00
2023-03-17T01:34:49.105Z,0.00
2023-03-17T01:35:49.124Z,0.00
2023-03-17T01:36:49.088Z,0.00
2023-03-17T01:37:49.103Z,0.00
2023-03-17T01:38:49.069Z,0.00
2023-03-17T01:39:49.065Z,0.00
2023-03-17T01:40:49.049Z,0.00
2023-03-17T01:41:49.092Z,0.00
2023-03-17T01:42:49.055Z,0.00
2023-03-17T01:43:49.023Z,0.00
2023-03-17T01:44:49.007Z,0.00
2023-03-17T01:45:49.036Z,0.00
2023-03-17T01:46:48.985Z,0.00
2023-03-17T01:47:49.002Z,0.00
2023-03-17T01:48:48.991Z,0.00
2023-03-17T01:49:48.959Z,0.00
2023-03-17T01:50:48.957Z,0.00
2023-03-17T01:51:48.941Z,0.00
2023-03-17T01:52:48.921Z,0.00
2023-03-17T01:53:48.935Z,0.00
2023-03-17T01:54:48.914Z,0.00
2023-03-17T01:55:48.911Z,0.00
2023-03-17T01:56:48.893Z,0.00
2023-03-17T01:57:48.916Z,0.00
2023-03-17T01:58:48.876Z,0.00
2023-03-17T01:59:48.869Z,0.00
2023-03-17T02:00:48.874Z,0.00
2023-03-17T02:01:48.838Z,0.00
2023-03-17T02:02:48.842Z,0.00
2023-03-17T02:03:48.850Z,0.00
2023-03-17T02:04:48.806Z,0.00
2023-03-17T02:05:48.799Z,0.00
2023-03-17T02:06:57.434Z,0.00
2023-03-17T02:07:48.813Z,0.00
2023-03-17T02:08:48.764Z,0.00
2023-03-17T02:09:48.766Z,0.00
2023-03-17T02:10:48.748Z,0.00
2023-03-17T02:11:48.742Z,0.00
2023-03-17T02:12:48.743Z,0.00
2023-03-17T02:13:48.727Z,0.00
2023-03-17T02:14:48.724Z,0.00
2023-03-17T02:15:48.702Z,0.00
2023-03-17T02:16:48.779Z,0.00
2023-03-17T02:17:48.702Z,0.00
2023-03-17T02:18:48.668Z,0.00
2023-03-17T02:19:48.662Z,0.00
2023-03-17T02:20:48.649Z,0.00
2023-03-17T02:21:48.642Z,0.00
2023-03-17T02:22:48.670Z,0.00
2023-03-17T02:23:48.621Z,0.00
2023-03-17T02:24:48.606Z,0.00
2023-03-17T02:25:48.599Z,0.00
2023-03-17T02:26:48.587Z,0.00
2023-03-17T02:27:48.581Z,0.00
2023-03-17T02:28:48.621Z,0.00
2023-03-17T02:29:48.564Z,0.00
2023-03-17T02:30:48.580Z,0.00
2023-03-17T02:31:48.543Z,0.00
2023-03-17T02:32:48.588Z,0.00
2023-03-17T02:33:48.539Z,0.00
2023-03-17T02:34:48.520Z,0.00
2023-03-17T02:35:48.528Z,0.00
2023-03-17T02:36:48.500Z,0.00
2023-03-17T02:37:48.482Z,0.00
2023-03-17T02:38:48.485Z,0.00
2023-03-17T02:39:48.466Z,0.00
2023-03-17T02:40:48.459Z,0.00
2023-03-17T02:41:48.447Z,0.00
2023-03-17T02:42:48.433Z,0.00
2023-03-17T02:43:48.446Z,0.00
2023-03-17T02:44:48.423Z,0.00
2023-03-17T02:45:48.423Z,0.00
2023-03-17T02:46:48.398Z,0.00
2023-03-17T02:47:48.391Z,0.00
2023-03-17T02:48:48.409Z,0.00
2023-03-17T02:49:48.371Z,0.00
2023-03-17T02:50:48.357Z,0.00
2023-03-17T02:51:48.351Z,0.00
2023-03-17T02:52:48.341Z,0.00
2023-03-17T02:53:48.341Z,0.00
2023-03-17T02:54:48.320Z,0.00
2023-03-17T02:55:48.309Z,0.00
2023-03-17T02:56:48.294Z,0.00
2023-03-17T02:57:48.313Z,0.00
2023-03-17T02:58:48.300Z,0.00
2023-03-17T02:59:48.274Z,0.00
2023-03-17T03:00:48.256Z,0.00
2023-03-17T03:01:48.275Z,0.00
2023-03-17T03:02:48.365Z,0.00
2023-03-17T03:03:48.242Z,0.00
2023-03-17T03:04:48.211Z,0.00
2023-03-17T03:05:48.216Z,0.00
2023-03-17T03:06:48.198Z,0.00
2023-03-17T03:07:48.190Z,0.00
2023-03-17T03:08:48.187Z,0.00
2023-03-17T03:09:48.171Z,0.00
2023-03-17T03:10:48.156Z,0.00
2023-03-17T03:11:48.151Z,0.00
2023-03-17T03:12:48.135Z,0.00
2023-03-17T03:13:48.141Z,0.00
2023-03-17T03:14:48.121Z,0.00
2023-03-17T03:15:48.207Z,0.00
2023-03-17T03:16:48.095Z,0.00
2023-03-17T03:17:48.088Z,0.00
2023-03-17T03:18:48.115Z,0.00
2023-03-17T03:19:48.086Z,0.00
2023-03-17T03:20:48.053Z,0.00
2023-03-17T03:21:48.048Z,0.00
2023-03-17T03:22:48.037Z,0.00
2023-03-17T03:23:48.028Z,0.00
2023-03-17T03:24:48.029Z,0.00
2023-03-17T03:25:48.008Z,0.00
2023-03-17T03:26:47.996Z,0.00
2023-03-17T03:27:47.988Z,0.00
2023-03-17T03:28:47.982Z,0.00
2023-03-17T03:29:47.983Z,0.00
2023-03-17T03:30:47.997Z,0.00
2023-03-17T03:31:47.960Z,0.00
2023-03-17T03:32:48.007Z,0.00
2023-03-17T03:33:47.945Z,0.00
2023-03-17T03:34:47.917Z,0.00
2023-03-17T03:35:47.976Z,0.00
2023-03-17T03:36:47.893Z,0.00
2023-03-17T03:37:47.888Z,0.00
2023-03-17T03:38:47.893Z,0.00
2023-03-17T03:39:47.878Z,0.00
2023-03-17T03:40:47.856Z,0.00
2023-03-17T03:41:47.851Z,0.00
2023-03-17T03:42:47.837Z,0.00
2023-03-17T03:43:47.842Z,0.00
2023-03-17T03:44:47.810Z,0.00
2023-03-17T03:45:47.805Z,0.00
2023-03-17T03:46:47.840Z,0.00
2023-03-17T03:47:47.782Z,0.00
2023-03-17T03:48:47.786Z,0.00
2023-03-17T03:49:47.780Z,0.00
2023-03-17T03:50:47.761Z,0.00
2023-03-17T03:51:47.757Z,0.00
2023-03-17T03:52:47.728Z,0.00
2023-03-17T03:53:47.762Z,0.00
2023-03-17T03:54:47.722Z,0.00
2023-03-17T03:55:47.709Z,0.00
2023-03-17T03:56:47.688Z,0.00
2023-03-17T03:57:47.700Z,0.00
2023-03-17T03:58:47.673Z,0.00
2023-03-17T03:59:47.712Z,0.00
2023-03-17T04:00:47.660Z,0.00
2023-03-17T04:01:47.640Z,0.00
2023-03-17T04:02:47.674Z,0.00
2023-03-17T04:03:47.629Z,0.00
2023-03-17T04:04:47.659Z,0.00
2023-03-17T04:05:47.614Z,0.00
2023-03-17T04:06:47.595Z,0.00
2023-03-17T04:07:47.576Z,0.00
2023-03-17T04:08:47.584Z,0.00
2023-03-17T04:09:47.574Z,0.00
2023-03-17T04:10:47.581Z,0.00
2023-03-17T04:11:47.541Z,0.00
2023-03-17T04:12:47.532Z,0.00
2023-03-17T04:13:47.510Z,0.00
2023-03-17T04:14:47.526Z,0.00
2023-03-17T04:15:47.528Z,0.00
2023-03-17T04:16:47.495Z,0.00
2023-03-17T04:17:47.488Z,0.00
2023-03-17T04:18:47.571Z,0.00
2023-03-17T04:19:47.470Z,0.00
2023-03-17T04:20:47.461Z,0.00
2023-03-17T04:21:47.433Z,0.00
2023-03-17T04:22:47.426Z,0.00
2023-03-17T04:23:47.435Z,0.00
2023-03-17T04:24:47.405Z,0.00
2023-03-17T04:25:47.400Z,0.00
2023-03-17T04:26:47.389Z,0.00
2023-03-17T04:27:47.369Z,0.00
2023-03-17T04:28:47.380Z,0.00
2023-03-17T04:29:47.353Z,0.00
2023-03-17T04:30:47.346Z,0.00
2023-03-17T04:31:47.358Z,0.00
2023-03-17T04:32:47.347Z,0.00
2023-03-17T04:33:47.336Z,0.00
2023-03-17T04:34:47.306Z,0.00
2023-03-17T04:35:47.350Z,0.00
2023-03-17T04:36:47.281Z,0.00
2023-03-17T04:37:47.273Z,0.00
2023-03-17T04:38:47.282Z,0.00
2023-03-17T04:39:47.253Z,0.00
2023-03-17T04:40:47.251Z,0.00
2023-03-17T04:41:47.228Z,0.00
2023-03-17T04:42:47.224Z,0.00
2023-03-17T04:43:47.224Z,0.00
2023-03-17T04:44:47.203Z,0.00
2023-03-17T04:45:47.252Z,0.00
2023-03-17T04:46:47.187Z,0.00
2023-03-17T04:47:47.194Z,0.00
2023-03-17T04:48:47.170Z,0.00
2023-03-17T04:49:47.152Z,0.00
2023-03-17T04:50:47.146Z,0.00
2023-03-17T04:51:47.130Z,0.00
2023-03-17T04:52:47.128Z,0.00
2023-03-17T04:53:47.108Z,0.00
2023-03-17T04:54:47.121Z,0.00
2023-03-17T04:55:47.095Z,0.00
2023-03-17T04:56:47.101Z,0.00
2023-03-17T04:57:47.069Z,0.00
2023-03-17T04:58:47.063Z,0.00
2023-03-17T04:59:47.012Z,1.00
2023-03-17T05:00:53.122Z,0.00
2023-03-17T05:01:46.986Z,1.00
2023-03-17T05:02:46.973Z,1.00
2023-03-17T05:03:46.958Z,1.00
2023-03-17T05:04:46.968Z,1.00
2023-03-17T05:05:46.941Z,2.00
2023-03-17T05:06:46.929Z,2.00
2023-03-17T05:07:46.922Z,2.00
2023-03-17T05:08:46.912Z,3.00
2023-03-17T05:09:46.916Z,5.00
2023-03-17T05:10:46.890Z,4.00
2023-03-17T05:11:46.879Z,5.00
2023-03-17T05:12:46.869Z,6.00
2023-03-17T05:13:46.855Z,8.00
2023-03-17T05:14:46.877Z,7.00
2023-03-17T05:15:46.837Z,12.00
2023-03-17T05:16:46.882Z,19.00
2023-03-17T05:17:46.818Z,19.00
2023-03-17T05:18:46.811Z,25.00
2023-03-17T05:19:46.812Z,26.00
2023-03-17T05:20:46.795Z,31.00
2023-03-17T05:21:46.785Z,33.00
2023-03-17T05:22:46.775Z,44.00
2023-03-17T05:23:46.754Z,49.00
2023-03-17T05:24:46.773Z,59.00
2023-03-17T05:25:46.739Z,69.00
2023-03-17T05:26:46.722Z,83.00
2023-03-17T05:27:46.720Z,95.00
2023-03-17T05:28:46.712Z,104.00
2023-03-17T05:29:46.706Z,117.00
2023-03-17T05:30:46.816Z,126.00
2023-03-17T05:31:46.676Z,140.00
2023-03-17T05:32:46.744Z,154.00
2023-03-17T05:33:46.657Z,165.00
2023-03-17T05:34:46.698Z,180.00
2023-03-17T05:35:46.680Z,195.00
2023-03-17T05:36:46.626Z,211.00
2023-03-17T05:37:46.612Z,227.00
2023-03-17T05:38:46.608Z,245.00
2023-03-17T05:39:46.606Z,268.00
2023-03-17T05:40:46.614Z,291.00
2023-03-17T05:41:46.575Z,317.00
2023-03-17T05:42:46.565Z,348.00
2023-03-17T05:43:46.572Z,377.00
2023-03-17T05:44:46.549Z,400.00
2023-03-17T05:45:46.584Z,428.00
2023-03-17T05:46:46.531Z,452.00
2023-03-17T05:47:46.518Z,477.00
2023-03-17T05:48:46.511Z,506.00
2023-03-17T05:49:46.497Z,530.00
2023-03-17T05:50:46.526Z,563.00
2023-03-17T05:51:46.511Z,597.00
2023-03-17T05:52:46.477Z,632.00
2023-03-17T05:53:46.454Z,675.00
2023-03-17T05:54:46.490Z,721.00
2023-03-17T05:55:46.464Z,768.00
2023-03-17T05:56:46.431Z,821.00
2023-03-17T05:57:46.418Z,877.00
2023-03-17T05:58:46.414Z,934.00
2023-03-17T05:59:46.415Z,999.00
2023-03-17T06:00:46.400Z,1064.00
2023-03-17T06:01:46.384Z,1133.00
2023-03-17T06:02:46.505Z,1207.00
2023-03-17T06:03:46.411Z,1293.00
2023-03-17T06:04:46.367Z,1369.00
2023-03-17T06:05:46.333Z,1442.00
2023-03-17T06:06:46.416Z,1509.00
2023-03-17T06:07:53.328Z,1577.00
2023-03-17T06:08:46.317Z,1648.00
2023-03-17T06:09:46.326Z,1740.00
2023-03-17T06:10:46.309Z,1819.00
2023-03-17T06:11:46.293Z,1863.00
2023-03-17T06:12:46.277Z,1916.00
2023-03-17T06:13:46.250Z,1984.00
2023-03-17T06:14:46.258Z,2055.00
2023-03-17T06:15:46.344Z,2111.00
2023-03-17T06:16:46.264Z,2118.00
2023-03-17T06:17:46.214Z,2157.00
2023-03-17T06:18:46.219Z,2257.00
2023-03-17T06:19:48.361Z,2334.00
2023-03-17T06:20:46.192Z,2387.00
2023-03-17T06:21:46.176Z,2436.00
2023-03-17T06:23:02.159Z,2468.00
2023-03-17T06:23:46.158Z,2503.00
2023-03-17T06:24:46.161Z,2605.00
2023-03-17T06:25:46.143Z,2730.00
2023-03-17T06:26:46.141Z,2733.00
2023-03-17T06:27:46.121Z,2416.00
2023-03-17T06:28:46.111Z,2816.00
2023-03-17T06:29:46.112Z,2778.00
2023-03-17T06:30:46.215Z,3037.00
2023-03-17T06:31:46.073Z,3197.00
2023-03-17T06:32:46.142Z,3051.00
2023-03-17T06:33:46.079Z,2935.00
2023-03-17T06:34:46.069Z,3043.00
2023-03-17T06:35:46.121Z,3116.00
2023-03-17T06:36:46.030Z,2950.00
2023-03-17T06:37:46.012Z,2905.00
2023-03-17T06:38:46.027Z,2942.00
2023-03-17T06:39:45.997Z,2987.00
2023-03-17T06:40:46.000Z,2997.00
2023-03-17T06:41:45.974Z,3166.00
2023-03-17T06:42:45.965Z,3160.00
2023-03-17T06:43:45.953Z,3217.00
2023-03-17T06:44:45.963Z,3253.00
2023-03-17T06:45:45.948Z,3351.00
2023-03-17T06:46:45.965Z,3225.00
2023-03-17T06:47:45.913Z,3410.00
2023-03-17T06:48:45.908Z,3696.00
2023-03-17T06:49:45.932Z,3684.00
2023-03-17T06:50:45.891Z,3615.00
2023-03-17T06:51:45.877Z,3735.00
2023-03-17T06:52:46.881Z,4059.00
2023-03-17T06:53:45.868Z,4104.00
2023-03-17T06:54:45.894Z,4358.00
2023-03-17T06:55:45.834Z,4316.00
2023-03-17T06:56:45.828Z,3696.00
2023-03-17T06:57:45.812Z,4479.00
2023-03-17T06:58:45.808Z,7447.00
2023-03-17T06:59:45.830Z,4659.00
2023-03-17T07:00:45.793Z,6164.00
2023-03-17T07:01:45.819Z,6443.00
2023-03-17T07:02:45.767Z,6206.00
2023-03-17T07:03:45.756Z,5307.00
2023-03-17T07:04:45.819Z,4792.00
2023-03-17T07:05:45.731Z,4676.00
2023-03-17T07:06:45.728Z,4515.00
2023-03-17T07:07:45.712Z,4779.00
2023-03-17T07:08:45.706Z,4666.00
2023-03-17T07:09:45.703Z,5121.00
2023-03-17T07:10:45.694Z,5693.00
2023-03-17T07:11:45.674Z,6724.00
2023-03-17T07:12:45.715Z,6059.00
2023-03-17T07:13:45.667Z,6884.00
2023-03-17T07:14:45.673Z,6904.00
2023-03-17T07:15:45.632Z,6590.00
2023-03-17T07:16:45.667Z,6553.00
2023-03-17T07:17:45.630Z,7811.00
2023-03-17T07:18:45.610Z,10613.00
2023-03-17T07:19:45.601Z,8526.00
2023-03-17T07:20:45.584Z,6358.00
2023-03-17T07:21:47.071Z,7673.00
2023-03-17T07:22:45.584Z,7570.00
2023-03-17T07:23:45.545Z,4772.00
2023-03-17T07:24:45.560Z,7964.00
2023-03-17T07:25:45.530Z,6834.00
2023-03-17T07:26:45.519Z,10919.00
2023-03-17T07:27:45.504Z,9923.00
2023-03-17T07:28:45.519Z,11393.00
2023-03-17T07:29:45.511Z,5268.00
2023-03-17T07:30:45.509Z,13671.00
2023-03-17T07:31:45.660Z,15181.00
2023-03-17T07:32:45.505Z,6256.00
2023-03-17T07:33:45.457Z,11147.00
2023-03-17T07:34:45.469Z,8803.00
2023-03-17T07:35:45.425Z,12657.00
2023-03-17T07:36:45.424Z,9884.00
2023-03-17T07:37:45.409Z,9832.00
2023-03-17T07:38:45.398Z,13012.00
2023-03-17T07:39:45.415Z,12097.00
2023-03-17T07:40:45.402Z,13267.00
2023-03-17T07:41:45.359Z,12419.00
2023-03-17T07:42:45.377Z,11445.00
2023-03-17T07:43:45.339Z,9779.00
2023-03-17T07:44:45.401Z,17723.00
2023-03-17T07:45:45.328Z,14041.00
2023-03-17T07:46:45.317Z,12885.00
2023-03-17T07:47:45.327Z,13231.00
2023-03-17T07:48:45.309Z,11457.00
2023-03-17T07:49:45.306Z,14235.00
2023-03-17T07:50:45.276Z,11133.00
2023-03-17T07:51:45.260Z,14135.00
2023-03-17T07:52:45.249Z,14488.00
2023-03-17T07:53:45.265Z,13295.00
2023-03-17T07:54:45.231Z,12803.00
2023-03-17T07:55:45.281Z,11335.00
2023-03-17T07:56:45.214Z,8243.00
2023-03-17T07:57:45.214Z,15414.00
2023-03-17T07:58:45.191Z,16790.00
2023-03-17T07:59:45.179Z,16783.00
2023-03-17T08:00:45.186Z,16107.00
2023-03-17T08:01:45.260Z,18117.00
2023-03-17T08:02:46.870Z,17521.00
2023-03-17T08:03:45.213Z,15527.00
2023-03-17T08:04:45.124Z,14266.00
2023-03-17T08:05:45.128Z,16753.00
2023-03-17T08:06:45.117Z,12688.00
2023-03-17T08:07:45.112Z,16937.00
2023-03-17T08:08:45.082Z,18093.00
2023-03-17T08:09:45.070Z,17414.00
2023-03-17T08:10:45.078Z,17590.00
2023-03-17T08:11:45.068Z,19913.00
2023-03-17T08:12:45.042Z,19320.00
2023-03-17T08:13:45.041Z,20988.00
2023-03-17T08:14:45.019Z,22540.00
2023-03-17T08:15:45.013Z,19672.00
2023-03-17T08:16:45.087Z,22797.00
2023-03-17T08:17:45.008Z,23208.00
2023-03-17T08:18:44.979Z,18824.00
2023-03-17T08:19:44.969Z,17644.00
2023-03-17T08:20:44.970Z,18156.00
2023-03-17T08:21:44.950Z,19012.00
2023-03-17T08:22:44.941Z,18657.00
2023-03-17T08:23:44.936Z,17426.00
2023-03-17T08:24:44.970Z,20334.00
2023-03-17T08:25:44.930Z,20574.00
2023-03-17T08:26:44.897Z,21779.00
2023-03-17T08:27:44.940Z,16342.00
2023-03-17T08:28:44.871Z,19943.00
2023-03-17T08:29:44.868Z,20280.00
2023-03-17T08:30:45.017Z,20433.00
2023-03-17T08:31:46.661Z,21011.00
2023-03-17T08:32:44.967Z,19779.00
2023-03-17T08:33:44.830Z,21406.00
2023-03-17T08:34:44.809Z,21561.00
2023-03-17T08:35:44.861Z,20886.00
2023-03-17T08:36:44.796Z,19835.00
2023-03-17T08:37:44.804Z,22192.00
2023-03-17T08:38:44.780Z,18922.00
2023-03-17T08:39:44.770Z,24481.00
2023-03-17T08:40:44.773Z,13795.00
2023-03-17T08:41:44.754Z,21359.00
2023-03-17T08:42:44.737Z,22382.00
2023-03-17T08:43:44.723Z,18371.00
2023-03-17T08:44:44.710Z,24461.00
2023-03-17T08:45:44.743Z,24589.00
2023-03-17T08:46:44.695Z,13627.00
2023-03-17T08:47:44.682Z,17406.00
2023-03-17T08:48:44.670Z,24228.00
2023-03-17T08:49:44.665Z,22830.00
2023-03-17T08:50:44.659Z,22405.00
2023-03-17T08:51:44.642Z,23389.00
2023-03-17T08:52:44.631Z,14310.00
2023-03-17T08:53:44.622Z,19676.00
2023-03-17T08:54:44.608Z,25013.00
2023-03-17T08:55:44.618Z,23005.00
2023-03-17T08:56:44.584Z,28128.00
2023-03-17T08:57:44.580Z,22053.00
2023-03-17T08:58:44.572Z,18956.00
2023-03-17T08:59:44.561Z,26109.00
2023-03-17T09:00:44.564Z,18084.00
2023-03-17T09:01:44.568Z,14505.00
2023-03-17T09:02:44.614Z,20856.00
2023-03-17T09:03:44.530Z,24527.00
2023-03-17T09:04:44.502Z,26021.00
2023-03-17T09:05:44.514Z,28936.00
2023-03-17T09:07:01.948Z,17204.00
2023-03-17T09:07:44.552Z,21963.00
2023-03-17T09:08:44.479Z,17389.00
2023-03-17T09:09:44.461Z,22124.00
2023-03-17T09:10:44.571Z,22027.00
2023-03-17T09:11:44.449Z,27044.00
2023-03-17T09:12:44.452Z,16386.00
2023-03-17T09:13:44.427Z,26465.00
2023-03-17T09:14:44.995Z,9010.00
2023-03-17T09:15:44.443Z,26414.00
2023-03-17T09:16:44.374Z,24791.00
2023-03-17T09:17:44.372Z,24847.00
2023-03-17T09:18:44.376Z,27861.00
2023-03-17T09:19:44.357Z,23098.00
2023-03-17T09:20:44.380Z,25791.00
2023-03-17T09:21:44.332Z,24020.00
2023-03-17T09:22:44.324Z,21138.00
2023-03-17T09:23:44.323Z,18923.00
2023-03-17T09:24:44.297Z,16138.00
2023-03-17T09:25:44.309Z,19410.00
2023-03-17T09:26:44.290Z,17524.00
2023-03-17T09:27:44.269Z,12911.00
2023-03-17T09:28:44.254Z,23206.00
2023-03-17T09:29:44.253Z,20331.00
2023-03-17T09:30:44.272Z,13765.00
2023-03-17T09:31:44.228Z,26982.00
2023-03-17T09:32:44.238Z,23462.00
2023-03-17T09:33:44.213Z,19950.00
2023-03-17T09:34:44.199Z,20757.00
2023-03-17T09:35:44.229Z,20914.00
2023-03-17T09:36:44.176Z,26692.00
2023-03-17T09:37:44.164Z,18275.00
2023-03-17T09:38:44.151Z,16617.00
2023-03-17T09:39:44.151Z,22386.00
2023-03-17T09:40:44.151Z,27733.00
2023-03-17T09:41:44.127Z,16513.00
2023-03-17T09:42:44.111Z,20472.00
2023-03-17T09:43:44.107Z,22260.00
2023-03-17T09:44:44.092Z,21314.00
2023-03-17T09:45:44.098Z,20007.00
2023-03-17T09:46:44.120Z,23424.00
2023-03-17T09:47:44.082Z,18688.00
2023-03-17T09:48:44.053Z,20062.00
2023-03-17T09:49:44.043Z,26330.00
2023-03-17T09:50:44.035Z,24337.00
2023-03-17T09:51:44.023Z,28912.00
2023-03-17T09:52:44.039Z,21562.00
2023-03-17T09:53:44.005Z,19844.00
2023-03-17T09:54:43.991Z,19809.00
2023-03-17T09:55:43.996Z,21308.00
2023-03-17T09:56:43.968Z,20281.00
2023-03-17T09:57:43.991Z,15773.00
2023-03-17T09:58:43.944Z,19085.00
2023-03-17T09:59:43.953Z,19939.00
2023-03-17T10:00:43.940Z,12234.00
2023-03-17T10:01:44.053Z,23727.00
2023-03-17T10:02:43.932Z,23500.00
2023-03-17T10:03:43.908Z,27338.00
2023-03-17T10:04:43.889Z,15585.00
2023-03-17T10:05:43.922Z,21287.00
2023-03-17T10:06:43.860Z,26488.00
2023-03-17T10:07:43.889Z,26962.00
2023-03-17T10:08:43.847Z,17231.00
2023-03-17T10:09:43.843Z,19259.00
2023-03-17T10:10:43.830Z,27758.00
2023-03-17T10:11:43.820Z,24867.00
2023-03-17T10:12:43.821Z,24769.00
2023-03-17T10:13:43.791Z,27641.00
2023-03-17T10:14:43.779Z,31631.00
2023-03-17T10:15:43.788Z,33675.00
2023-03-17T10:16:43.764Z,31506.00
2023-03-17T10:17:43.763Z,22857.00
2023-03-17T10:18:43.743Z,20155.00
2023-03-17T10:19:43.734Z,19470.00
2023-03-17T10:20:43.737Z,33588.00
2023-03-17T10:21:43.708Z,27215.00
2023-03-17T10:22:43.704Z,29296.00
2023-03-17T10:23:43.707Z,30156.00
2023-03-17T10:24:43.683Z,31483.00
2023-03-17T10:25:43.674Z,31526.00
2023-03-17T10:26:43.676Z,30638.00
2023-03-17T10:27:43.651Z,37114.00
2023-03-17T10:28:43.668Z,36660.00
2023-03-17T10:29:43.631Z,36082.00
2023-03-17T10:30:43.629Z,29166.00
2023-03-17T10:31:43.632Z,21823.00
2023-03-17T10:32:43.603Z,30350.00
2023-03-17T10:33:43.610Z,30745.00
2023-03-17T10:34:43.572Z,30685.00
2023-03-17T10:35:43.578Z,30504.00
2023-03-17T10:36:43.553Z,35330.00
2023-03-17T10:37:44.013Z,25988.00
2023-03-17T10:38:43.577Z,26629.00
2023-03-17T10:39:43.529Z,35746.00
2023-03-17T10:40:43.531Z,31198.00
2023-03-17T10:41:43.521Z,33890.00
2023-03-17T10:42:43.496Z,36531.00
2023-03-17T10:43:43.487Z,24420.00
2023-03-17T10:44:43.476Z,32642.00
2023-03-17T10:45:45.244Z,31173.00
2023-03-17T10:46:43.507Z,35995.00
2023-03-17T10:47:43.446Z,29272.00
2023-03-17T10:48:43.426Z,32313.00
2023-03-17T10:49:43.424Z,32065.00
2023-03-17T10:50:43.419Z,31744.00
2023-03-17T10:51:43.436Z,37286.00
2023-03-17T10:52:43.389Z,30672.00
2023-03-17T10:53:43.418Z,29674.00
2023-03-17T10:54:43.368Z,35304.00
2023-03-17T10:55:43.371Z,28799.00
2023-03-17T10:56:43.361Z,31283.00
2023-03-17T10:57:43.350Z,27926.00
2023-03-17T10:58:43.339Z,32497.00
2023-03-17T10:59:44.392Z,18025.00
2023-03-17T11:00:43.348Z,30586.00
2023-03-17T11:01:43.322Z,34188.00
2023-03-17T11:02:43.310Z,20875.00
2023-03-17T11:03:43.306Z,35251.00
2023-03-17T11:04:43.281Z,28662.00
2023-03-17T11:05:43.274Z,31885.00
2023-03-17T11:06:43.303Z,28033.00
2023-03-17T11:07:43.259Z,34449.00
2023-03-17T11:08:43.228Z,24321.00
2023-03-17T11:09:43.222Z,25354.00
2023-03-17T11:10:43.204Z,28792.00
2023-03-17T11:11:43.216Z,33251.00
2023-03-17T11:12:43.188Z,28977.00
2023-03-17T11:13:43.183Z,27431.00
2023-03-17T11:14:43.167Z,33378.00
2023-03-17T11:15:43.169Z,29107.00
2023-03-17T11:16:43.203Z,29254.00
2023-03-17T11:17:43.141Z,33253.00
2023-03-17T11:18:43.122Z,29057.00
2023-03-17T11:19:43.130Z,21630.00
2023-03-17T11:20:43.111Z,21398.00
2023-03-17T11:21:43.125Z,20271.00
2023-03-17T11:22:43.119Z,20877.00
2023-03-17T11:23:43.125Z,22676.00
2023-03-17T11:24:43.064Z,24922.00
2023-03-17T11:25:43.057Z,21055.00
2023-03-17T11:26:43.073Z,22519.00
2023-03-17T11:27:43.038Z,24699.00
2023-03-17T11:28:43.021Z,23947.00
2023-03-17T11:29:43.034Z,22718.00
2023-03-17T11:30:43.002Z,26183.00
2023-03-17T11:31:43.071Z,26475.00
2023-03-17T11:32:42.997Z,24629.00
2023-03-17T11:33:42.983Z,25434.00
2023-03-17T11:34:42.978Z,29956.00
2023-03-17T11:35:42.977Z,20921.00
2023-03-17T11:36:42.964Z,31274.00
2023-03-17T11:37:42.942Z,26627.00
2023-03-17T11:38:42.927Z,30495.00
2023-03-17T11:39:42.926Z,26918.00
2023-03-17T11:40:42.906Z,29493.00
2023-03-17T11:41:42.934Z,31153.00
2023-03-17T11:42:42.881Z,32248.00
2023-03-17T11:43:42.881Z,25012.00
2023-03-17T11:44:42.857Z,31604.00
2023-03-17T11:45:42.923Z,21506.00
2023-03-17T11:46:42.876Z,30017.00
2023-03-17T11:47:42.850Z,28662.00
2023-03-17T11:48:42.837Z,26007.00
2023-03-17T11:49:42.815Z,28351.00
2023-03-17T11:50:42.812Z,28941.00
2023-03-17T11:51:42.816Z,22765.00
2023-03-17T11:52:42.778Z,26856.00
2023-03-17T11:53:42.773Z,22559.00
2023-03-17T11:54:42.755Z,25502.00
2023-03-17T11:55:42.759Z,23445.00
2023-03-17T11:56:42.749Z,26617.00
2023-03-17T11:57:42.729Z,22133.00
2023-03-17T11:58:42.720Z,23858.00
2023-03-17T11:59:42.712Z,22349.00
2023-03-17T12:00:43.832Z,22027.00
2023-03-17T12:01:42.709Z,26394.00
2023-03-17T12:02:42.676Z,19512.00
2023-03-17T12:03:42.728Z,23275.00
2023-03-17T12:04:42.741Z,24917.00
2023-03-17T12:05:42.652Z,25345.00
2023-03-17T12:06:42.634Z,19685.00
2023-03-17T12:07:42.626Z,21474.00
2023-03-17T12:08:42.617Z,22326.00
2023-03-17T12:09:42.606Z,18858.00
2023-03-17T12:10:42.614Z,20737.00
2023-03-17T12:11:42.620Z,18953.00
2023-03-17T12:12:42.569Z,20402.00
2023-03-17T12:13:42.560Z,25045.00
2023-03-17T12:14:42.545Z,22055.00
2023-03-17T12:15:42.606Z,19847.00
2023-03-17T12:16:42.541Z,18952.00
2023-03-17T12:17:42.524Z,18890.00
2023-03-17T12:18:42.527Z,19236.00
2023-03-17T12:19:42.551Z,20884.00
2023-03-17T12:20:42.493Z,23298.00
2023-03-17T12:21:42.498Z,21467.00
2023-03-17T12:22:42.490Z,22601.00
2023-03-17T12:23:42.453Z,19994.00
2023-03-17T12:24:42.458Z,19455.00
2023-03-17T12:25:42.435Z,25190.00
2023-03-17T12:26:42.442Z,19777.00
2023-03-17T12:27:42.422Z,21202.00